Main page
METAR-TAF:

METAR-TAF

Airports :

Rodez–Aveyron Airport

Rodez, France

latitude: 44-24N, longitude: 002-29E, elevation: 581 m

Current weather observation

The report was made 26 minutes ago, at 16:00 UTC
Wind 11 kt from the Southeast
Temperature 18°C
Humidity 26%
Pressure 1017 hPa
Visibility 10 km or more
no clouds below 1500 m and no cumulonimbus

METAR: LFCR 041600Z AUTO 14011KT CAVOK 18/M02 Q1017

Time: 18:26 (16:26 UTC)


TAF: missing

Weather observations and forecasts of more than 4000 airports (METAR and TAF reports).

The available stations are represented by yellow and red dots on the map.

Hover mouse over dot to see the name of the station.

Then click to see weather observations and forecasts.

To change the map : click on the green buttons with a black cross to zoom in, on the green button with a dash to zoom out, or on the green arrows for adjacent maps.


METAR-TAF: